Westerville, Iowa
Current Conditions -  °F | °C
As of 10:53 PM on Saturday 22 Nov 2014 (Local Time) from KLWD Reporting Station
Overcast Overcast  
Wind Chill: 53°   Ceiling: 1200
Heat Index: 53°   Visibility: 10mi
Dew Point: 50°   Wind: 15mph
Humidity: 89%   Direction: 180°S
Pressure: 29.66"   Gusts: NA
Location:  40.8106°N, 93.9578°W
Report Text: KLWD 230453Z AUTO 18013KT 10SM OVC012 12/10 A2966 RMK AO2 SLP045 T01170100
Loading
Personal Weather Stations






























Interactive Weather Map New forecast layout! Learn more

10-Day Weather Forecast

Advertisements
Track Severe Weather on mobile